createdAt,value
2018-11-22T12:18:18.699Z,34.10
2018-11-22T12:20:47.952Z,33.18
2018-11-22T12:23:17.291Z,33.30
2018-11-22T12:25:46.604Z,32.73
2018-11-22T12:28:15.932Z,33.18
2018-11-22T12:30:45.216Z,32.60
2018-11-22T12:33:20.484Z,32.70
2018-11-22T12:35:55.261Z,32.23
2018-11-22T12:38:29.848Z,32.97
2018-11-22T12:40:59.232Z,31.62
2018-11-22T12:43:28.586Z,34.03
2018-11-22T12:45:57.893Z,31.75
2018-11-22T12:48:27.356Z,32.77
2018-11-22T12:50:56.680Z,33.70
2018-11-22T12:53:26.182Z,33.47
2018-11-22T12:55:55.801Z,33.67
2018-11-22T12:58:25.631Z,34.13
2018-11-22T13:00:54.999Z,34.13
2018-11-22T13:03:24.541Z,33.00
2018-11-22T13:05:53.919Z,33.05
2018-11-22T13:08:23.247Z,32.93
2018-11-22T13:10:53.063Z,34.70
2018-11-22T13:13:23.140Z,34.00
2018-11-22T13:15:53.171Z,34.05
2018-11-22T13:18:23.130Z,33.63
2018-11-22T13:20:53.307Z,36.55
2018-11-22T13:23:23.251Z,36.17
2018-11-22T13:25:53.209Z,35.88
2018-11-22T13:28:23.773Z,36.30
2018-11-22T13:30:53.753Z,34.63
2018-11-22T13:33:23.765Z,35.45
2018-11-22T13:35:54.022Z,35.20
2018-11-22T13:38:24.536Z,33.88
2018-11-22T13:40:54.444Z,37.78
2018-11-22T13:43:24.425Z,34.88
2018-11-22T13:45:54.473Z,35.65
2018-11-22T13:48:24.439Z,37.65
2018-11-22T13:50:54.498Z,35.08
2018-11-22T13:53:24.498Z,38.50
2018-11-22T13:55:54.615Z,40.25
2018-11-22T13:58:24.757Z,45.10
2018-11-22T14:00:54.635Z,38.13
2018-11-22T14:03:24.738Z,36.20
2018-11-22T14:05:54.808Z,39.08
2018-11-22T14:08:24.831Z,38.47
2018-11-22T14:10:58.443Z,37.33
2018-11-22T14:13:24.843Z,35.17
2018-11-22T14:15:54.895Z,35.38
2018-11-22T14:18:24.885Z,36.15
2018-11-22T14:20:54.907Z,36.70
2018-11-22T14:23:24.928Z,35.90
2018-11-22T14:25:54.968Z,34.88
2018-11-22T14:28:25.292Z,35.00
2018-11-22T14:30:54.890Z,36.15
2018-11-22T14:33:25.090Z,35.50
2018-11-22T14:35:55.159Z,36.47
2018-11-22T14:38:25.226Z,35.85
2018-11-22T14:40:55.065Z,35.13
2018-11-22T14:43:25.153Z,37.75
2018-11-22T14:45:54.946Z,35.85
2018-11-22T14:48:25.019Z,35.78
2018-11-22T14:51:07.523Z,38.63
2018-11-22T14:53:36.938Z,37.53
2018-11-22T14:56:06.569Z,36.83
2018-11-22T14:58:35.920Z,35.87
2018-11-22T15:01:05.552Z,36.50
2018-11-22T15:03:34.917Z,35.10
2018-11-22T15:06:04.322Z,37.43
2018-11-22T15:08:33.663Z,36.50
2018-11-22T15:11:03.009Z,36.50
2018-11-22T15:13:32.397Z,36.43
2018-11-22T15:16:01.767Z,36.13
2018-11-22T15:18:31.113Z,34.18
2018-11-22T15:21:01.165Z,35.60
2018-11-22T15:23:29.911Z,37.70
2018-11-22T15:25:59.246Z,38.17
2018-11-22T15:28:28.665Z,37.57
2018-11-22T15:30:57.986Z,37.20
2018-11-22T15:33:27.313Z,37.33
2018-11-22T15:35:56.721Z,37.87
2018-11-22T15:38:26.128Z,37.57
2018-11-22T15:40:55.488Z,35.97
2018-11-22T15:43:25.829Z,38.50
2018-11-22T15:45:55.938Z,37.83
2018-11-22T15:48:25.873Z,38.85
2018-11-22T15:50:56.123Z,36.30
2018-11-22T15:53:26.062Z,37.90
2018-11-22T15:55:56.119Z,37.55
2018-11-22T15:58:26.125Z,37.70
2018-11-22T16:00:56.125Z,38.92
2018-11-22T16:03:26.188Z,38.33
2018-11-22T16:05:56.218Z,37.75
2018-11-22T16:08:26.215Z,37.67
2018-11-22T16:10:56.283Z,38.25
2018-11-22T16:13:26.284Z,39.45
2018-11-22T16:15:56.284Z,37.55
2018-11-22T16:18:26.766Z,41.02
2018-11-22T16:20:56.408Z,41.35
2018-11-22T16:23:26.413Z,38.88
2018-11-22T16:25:56.546Z,40.50
2018-11-22T16:28:26.444Z,37.55
2018-11-22T16:30:56.742Z,37.80
2018-11-22T16:33:26.758Z,39.48
2018-11-22T16:35:56.750Z,39.42
2018-11-22T16:38:26.706Z,39.10
2018-11-22T16:40:56.971Z,37.97
2018-11-22T16:43:26.866Z,50.33
2018-11-22T16:45:56.901Z,40.43
2018-11-22T16:48:26.881Z,40.28
2018-11-22T16:50:57.046Z,38.23
2018-11-22T16:53:27.130Z,39.88
2018-11-22T16:55:57.114Z,39.88
2018-11-22T16:58:27.219Z,37.78
2018-11-22T17:00:57.204Z,39.15
2018-11-22T17:03:27.142Z,40.33
2018-11-22T17:05:57.211Z,38.98
2018-11-22T17:08:34.011Z,40.48
2018-11-22T17:11:03.428Z,40.13
2018-11-22T17:13:32.806Z,39.57
2018-11-22T17:16:02.167Z,41.53
2018-11-22T17:18:31.447Z,40.20
2018-11-22T17:21:00.838Z,39.67
2018-11-22T17:23:30.194Z,39.20
2018-11-22T17:25:59.615Z,39.97
2018-11-22T17:28:28.957Z,40.17
2018-11-22T17:37:17.895Z,41.57
2018-11-22T17:39:47.181Z,40.53
2018-11-22T17:42:17.132Z,39.67
2018-11-22T17:44:46.433Z,41.20
2018-11-22T17:47:15.782Z,40.40
2018-11-22T17:49:45.074Z,41.80
2018-11-22T17:52:14.368Z,39.70
2018-11-22T17:54:43.683Z,42.23
2018-11-22T17:57:13.026Z,41.17
2018-11-22T17:59:42.378Z,40.97
2018-11-22T18:02:11.754Z,41.97
2018-11-22T18:04:41.127Z,41.43
2018-11-22T18:07:10.512Z,40.93
2018-11-22T18:09:39.876Z,42.80
2018-11-22T18:12:09.240Z,41.23
2018-11-22T18:14:38.703Z,42.57
2018-11-22T18:17:08.539Z,41.97
2018-11-22T18:19:38.031Z,40.77
2018-11-22T18:22:07.481Z,41.75
2018-11-22T18:24:36.819Z,41.93
2018-11-22T18:27:06.208Z,42.43
2018-11-22T18:29:35.539Z,43.17
2018-11-22T18:32:04.904Z,42.67
2018-11-22T18:34:34.318Z,42.47
2018-11-22T18:37:03.758Z,44.45
2018-11-22T18:39:33.079Z,41.95
2018-11-22T18:42:02.393Z,42.83
2018-11-22T18:44:31.760Z,42.50
2018-11-22T18:47:01.290Z,40.90
2018-11-22T18:49:30.714Z,41.93
2018-11-22T18:52:01.185Z,41.47
2018-11-22T18:54:30.559Z,43.57
2018-11-22T18:57:00.987Z,45.23
2018-11-22T18:59:30.327Z,44.87
2018-11-22T19:01:59.701Z,42.30
2018-11-22T19:04:28.959Z,42.65
2018-11-22T19:06:59.471Z,43.53
2018-11-22T19:09:29.150Z,41.30
2018-11-22T19:11:59.620Z,42.50
2018-11-22T19:14:30.101Z,43.20
2018-11-22T19:17:00.646Z,47.10
2018-11-22T19:19:31.098Z,46.13
2018-11-22T19:22:01.580Z,47.10
2018-11-22T19:24:30.950Z,44.60
2018-11-22T19:27:01.419Z,42.90
2018-11-22T19:29:30.795Z,43.00
2018-11-22T19:32:01.271Z,41.00
2018-11-22T19:34:30.612Z,42.47
2018-11-22T19:36:59.952Z,40.97
2018-11-22T19:39:30.028Z,42.45
2018-11-22T19:41:59.980Z,42.05
2018-11-22T19:44:30.298Z,40.35
2018-11-22T19:47:00.095Z,40.50
2018-11-22T19:49:29.945Z,43.63
2018-11-22T19:51:59.967Z,40.85
2018-11-22T19:54:30.023Z,42.58
2018-11-22T19:56:59.947Z,41.48
2018-11-22T19:59:30.423Z,41.87
2018-11-22T20:02:00.484Z,42.05
2018-11-22T20:04:30.493Z,41.00
2018-11-22T20:07:00.388Z,41.02
2018-11-22T20:09:30.453Z,41.37
2018-11-22T20:12:00.501Z,42.55
2018-11-22T20:14:30.508Z,42.45
2018-11-22T20:17:00.547Z,41.53
2018-11-22T20:19:30.541Z,40.05
2018-11-22T20:22:00.487Z,41.15
2018-11-22T20:24:30.575Z,40.73
2018-11-22T20:27:00.540Z,40.80
2018-11-22T20:29:30.653Z,40.55
2018-11-22T20:32:00.780Z,41.58
2018-11-22T20:34:30.600Z,42.23
2018-11-22T20:37:00.597Z,41.77
2018-11-22T20:39:30.611Z,41.42
2018-11-22T20:42:00.577Z,43.08
2018-11-22T20:44:30.573Z,39.60
2018-11-22T20:47:00.716Z,40.65
2018-11-22T20:49:30.858Z,39.45
2018-11-22T20:52:00.795Z,40.05
2018-11-22T20:54:30.875Z,39.53
2018-11-22T20:57:01.135Z,40.58
2018-11-22T20:59:30.925Z,39.05
2018-11-22T21:02:00.939Z,41.28
2018-11-22T21:04:30.942Z,39.30
2018-11-22T21:07:01.340Z,40.23
2018-11-22T21:09:31.401Z,42.80
2018-11-22T21:12:01.358Z,43.28
2018-11-22T21:14:38.911Z,44.00
2018-11-22T21:17:08.279Z,43.73
2018-11-22T21:19:37.649Z,43.03
2018-11-22T21:22:06.975Z,41.53
2018-11-22T21:24:36.270Z,39.77
2018-11-22T21:27:05.732Z,41.37
2018-11-22T21:29:35.038Z,42.17
2018-11-22T21:32:04.365Z,40.83
2018-11-22T21:34:33.780Z,41.13
2018-11-22T21:37:03.101Z,40.73
2018-11-22T21:39:32.432Z,40.17
2018-11-22T21:42:02.262Z,40.98
2018-11-22T21:44:32.260Z,39.83
2018-11-22T21:47:02.370Z,39.78
2018-11-22T21:49:32.291Z,40.28
2018-11-22T21:52:02.375Z,38.75
2018-11-22T21:54:32.324Z,40.50
2018-11-22T21:57:02.381Z,40.52
2018-11-22T21:59:32.383Z,40.83
2018-11-22T22:02:02.386Z,40.78
2018-11-22T22:04:32.617Z,39.50
2018-11-22T22:07:09.333Z,40.05
2018-11-22T22:09:40.832Z,39.58
2018-11-22T22:12:10.215Z,39.07
2018-11-22T22:14:39.534Z,39.24
2018-11-22T22:17:08.816Z,38.80
2018-11-22T22:19:38.105Z,41.30
2018-11-22T22:22:07.441Z,39.25
2018-11-22T22:24:36.785Z,39.08
2018-11-22T22:27:06.379Z,40.53
2018-11-22T22:29:35.660Z,40.43
2018-11-22T22:32:04.988Z,38.57
2018-11-22T22:34:34.284Z,41.07
2018-11-22T22:37:03.549Z,40.87
2018-11-22T22:39:32.969Z,42.38
2018-11-22T22:42:03.185Z,41.60
2018-11-22T22:44:32.985Z,42.93
2018-11-22T22:47:02.970Z,42.58
2018-11-22T22:49:33.075Z,41.50
2018-11-22T22:52:03.042Z,41.85
2018-11-22T22:54:33.067Z,39.50
2018-11-22T22:57:03.088Z,42.05
2018-11-22T22:59:32.982Z,40.35
2018-11-22T23:02:02.279Z,40.90
2018-11-22T23:04:31.565Z,38.55
2018-11-22T23:07:00.976Z,41.53
2018-11-22T23:09:30.307Z,40.30
2018-11-22T23:11:59.674Z,39.23
2018-11-22T23:14:28.958Z,42.93
2018-11-22T23:16:58.305Z,40.57
2018-11-22T23:19:27.592Z,40.67
2018-11-22T23:21:56.868Z,42.97
2018-11-22T23:24:26.160Z,41.60
2018-11-22T23:26:55.504Z,41.63
2018-11-22T23:29:24.805Z,41.37
2018-11-22T23:31:54.074Z,42.33
2018-11-22T23:34:23.365Z,40.70
2018-11-22T23:36:52.781Z,40.50
2018-11-22T23:39:25.802Z,42.25
2018-11-22T23:41:55.050Z,42.27
2018-11-22T23:44:24.391Z,41.70
2018-11-22T23:46:53.681Z,40.43
2018-11-22T23:49:22.987Z,43.07
2018-11-22T23:51:52.304Z,41.40
2018-11-22T23:54:21.592Z,41.27
2018-11-22T23:56:50.865Z,40.73
2018-11-22T23:59:20.212Z,41.47
